sensor_id;sensor_type;location;lat;lon;timestamp;P1;durP1;ratioP1;P2;durP2;ratioP2
54883;SDS011;40776;52.880;6.016;2022-09-29T00:00:30;10.50;;;5.95;;
54883;SDS011;40776;52.880;6.016;2022-09-29T00:02:56;8.73;;;6.15;;
54883;SDS011;40776;52.880;6.016;2022-09-29T00:05:22;8.02;;;5.80;;
54883;SDS011;40776;52.880;6.016;2022-09-29T00:07:48;6.88;;;5.43;;
54883;SDS011;40776;52.880;6.016;2022-09-29T00:10:14;9.13;;;6.30;;
54883;SDS011;40776;52.880;6.016;2022-09-29T00:12:40;7.45;;;5.90;;
54883;SDS011;40776;52.880;6.016;2022-09-29T00:15:06;7.38;;;5.95;;
54883;SDS011;40776;52.880;6.016;2022-09-29T00:17:32;9.13;;;6.03;;
54883;SDS011;40776;52.880;6.016;2022-09-29T00:19:58;8.20;;;6.20;;
54883;SDS011;40776;52.880;6.016;2022-09-29T00:22:24;7.05;;;6.03;;
54883;SDS011;40776;52.880;6.016;2022-09-29T00:24:50;7.43;;;6.18;;
54883;SDS011;40776;52.880;6.016;2022-09-29T00:27:17;10.27;;;6.07;;
54883;SDS011;40776;52.880;6.016;2022-09-29T00:29:43;7.47;;;6.05;;
54883;SDS011;40776;52.880;6.016;2022-09-29T00:32:09;21.15;;;7.10;;
54883;SDS011;40776;52.880;6.016;2022-09-29T00:34:35;20.30;;;7.18;;
54883;SDS011;40776;52.880;6.016;2022-09-29T00:37:01;9.55;;;6.45;;
54883;SDS011;40776;52.880;6.016;2022-09-29T00:39:27;10.93;;;6.45;;
54883;SDS011;40776;52.880;6.016;2022-09-29T00:41:53;15.82;;;7.95;;
54883;SDS011;40776;52.880;6.016;2022-09-29T00:49:32;10.25;;;8.13;;
54883;SDS011;40776;52.880;6.016;2022-09-29T00:52:08;10.98;;;7.85;;
54883;SDS011;40776;52.880;6.016;2022-09-29T00:54:38;9.55;;;6.88;;
54883;SDS011;40776;52.880;6.016;2022-09-29T00:57:05;8.07;;;6.63;;
54883;SDS011;40776;52.880;6.016;2022-09-29T01:00:18;8.00;;;6.18;;
54883;SDS011;40776;52.880;6.016;2022-09-29T01:02:19;8.85;;;6.43;;
54883;SDS011;40776;52.880;6.016;2022-09-29T01:04:48;9.80;;;7.18;;
54883;SDS011;40776;52.880;6.016;2022-09-29T01:07:16;8.95;;;6.85;;
54883;SDS011;40776;52.880;6.016;2022-09-29T01:09:43;8.68;;;6.72;;
54883;SDS011;40776;52.880;6.016;2022-09-29T01:12:09;9.27;;;7.00;;
54883;SDS011;40776;52.880;6.016;2022-09-29T01:14:36;8.82;;;7.03;;
54883;SDS011;40776;52.880;6.016;2022-09-29T01:17:03;11.88;;;7.28;;
54883;SDS011;40776;52.880;6.016;2022-09-29T01:19:50;10.30;;;7.10;;
54883;SDS011;40776;52.880;6.016;2022-09-29T01:30:40;10.30;;;7.30;;
54883;SDS011;40776;52.880;6.016;2022-09-29T01:33:10;8.82;;;7.32;;
54883;SDS011;40776;52.880;6.016;2022-09-29T01:36:02;8.98;;;7.53;;
54883;SDS011;40776;52.880;6.016;2022-09-29T01:43:26;7.10;;;6.03;;
54883;SDS011;40776;52.880;6.016;2022-09-29T01:45:58;6.47;;;5.30;;
54883;SDS011;40776;52.880;6.016;2022-09-29T01:48:28;8.68;;;6.40;;
54883;SDS011;40776;52.880;6.016;2022-09-29T01:50:55;7.15;;;5.72;;
54883;SDS011;40776;52.880;6.016;2022-09-29T01:53:32;7.80;;;5.70;;
54883;SDS011;40776;52.880;6.016;2022-09-29T01:56:01;9.93;;;5.78;;
54883;SDS011;40776;52.880;6.016;2022-09-29T01:58:32;6.00;;;4.97;;
54883;SDS011;40776;52.880;6.016;2022-09-29T02:01:01;7.88;;;5.43;;
54883;SDS011;40776;52.880;6.016;2022-09-29T02:03:43;7.40;;;5.68;;
54883;SDS011;40776;52.880;6.016;2022-09-29T02:06:11;6.40;;;5.00;;
54883;SDS011;40776;52.880;6.016;2022-09-29T02:08:46;8.48;;;6.20;;
54883;SDS011;40776;52.880;6.016;2022-09-29T02:11:13;8.57;;;6.43;;
54883;SDS011;40776;52.880;6.016;2022-09-29T02:13:52;8.18;;;5.63;;
54883;SDS011;40776;52.880;6.016;2022-09-29T02:16:24;7.63;;;5.80;;
54883;SDS011;40776;52.880;6.016;2022-09-29T02:18:59;6.95;;;5.57;;
54883;SDS011;40776;52.880;6.016;2022-09-29T02:21:27;7.35;;;5.43;;
54883;SDS011;40776;52.880;6.016;2022-09-29T02:23:54;9.13;;;5.50;;
54883;SDS011;40776;52.880;6.016;2022-09-29T02:26:20;7.20;;;5.35;;
54883;SDS011;40776;52.880;6.016;2022-09-29T02:28:48;7.38;;;5.03;;
54883;SDS011;40776;52.880;6.016;2022-09-29T02:31:14;13.52;;;7.18;;
54883;SDS011;40776;52.880;6.016;2022-09-29T02:33:41;23.30;;;8.00;;
54883;SDS011;40776;52.880;6.016;2022-09-29T02:36:17;11.38;;;7.90;;
54883;SDS011;40776;52.880;6.016;2022-09-29T02:39:02;31.73;;;11.00;;
54883;SDS011;40776;52.880;6.016;2022-09-29T02:44:18;36.17;;;10.32;;
54883;SDS011;40776;52.880;6.016;2022-09-29T02:46:49;22.67;;;10.32;;
54883;SDS011;40776;52.880;6.016;2022-09-29T02:51:52;16.98;;;7.38;;
54883;SDS011;40776;52.880;6.016;2022-09-29T02:54:27;123.32;;;12.45;;
54883;SDS011;40776;52.880;6.016;2022-09-29T02:57:18;94.85;;;11.18;;
54883;SDS011;40776;52.880;6.016;2022-09-29T02:59:50;92.93;;;11.02;;
54883;SDS011;40776;52.880;6.016;2022-09-29T03:02:24;76.70;;;10.88;;
54883;SDS011;40776;52.880;6.016;2022-09-29T03:04:51;51.15;;;9.48;;
54883;SDS011;40776;52.880;6.016;2022-09-29T03:07:18;30.35;;;8.68;;
54883;SDS011;40776;52.880;6.016;2022-09-29T03:09:44;87.38;;;9.93;;
54883;SDS011;40776;52.880;6.016;2022-09-29T03:12:11;88.60;;;10.82;;
54883;SDS011;40776;52.880;6.016;2022-09-29T03:14:37;11.50;;;7.18;;
54883;SDS011;40776;52.880;6.016;2022-09-29T03:17:03;61.55;;;9.10;;
54883;SDS011;40776;52.880;6.016;2022-09-29T03:19:29;45.08;;;8.30;;
54883;SDS011;40776;52.880;6.016;2022-09-29T03:21:55;46.08;;;8.07;;
54883;SDS011;40776;52.880;6.016;2022-09-29T03:24:21;43.70;;;8.18;;
54883;SDS011;40776;52.880;6.016;2022-09-29T03:26:47;39.25;;;7.72;;
54883;SDS011;40776;52.880;6.016;2022-09-29T03:29:13;24.38;;;5.93;;
54883;SDS011;40776;52.880;6.016;2022-09-29T03:31:39;29.80;;;7.13;;
54883;SDS011;40776;52.880;6.016;2022-09-29T03:34:05;42.83;;;8.10;;
54883;SDS011;40776;52.880;6.016;2022-09-29T03:36:31;17.55;;;7.22;;
54883;SDS011;40776;52.880;6.016;2022-09-29T03:38:57;9.93;;;5.72;;
54883;SDS011;40776;52.880;6.016;2022-09-29T03:41:23;50.67;;;9.68;;
54883;SDS011;40776;52.880;6.016;2022-09-29T03:43:49;48.22;;;10.65;;
54883;SDS011;40776;52.880;6.016;2022-09-29T03:46:15;21.30;;;8.10;;
54883;SDS011;40776;52.880;6.016;2022-09-29T03:48:42;22.08;;;9.07;;
54883;SDS011;40776;52.880;6.016;2022-09-29T03:51:08;35.83;;;10.43;;
54883;SDS011;40776;52.880;6.016;2022-09-29T03:53:34;27.10;;;10.07;;
54883;SDS011;40776;52.880;6.016;2022-09-29T03:56:00;9.60;;;7.13;;
54883;SDS011;40776;52.880;6.016;2022-09-29T03:58:26;10.82;;;6.43;;
54883;SDS011;40776;52.880;6.016;2022-09-29T04:00:53;9.85;;;6.18;;
54883;SDS011;40776;52.880;6.016;2022-09-29T04:03:19;27.85;;;8.75;;
54883;SDS011;40776;52.880;6.016;2022-09-29T04:05:46;12.48;;;8.40;;
54883;SDS011;40776;52.880;6.016;2022-09-29T04:08:12;39.35;;;9.63;;
54883;SDS011;40776;52.880;6.016;2022-09-29T04:10:38;10.23;;;6.88;;
54883;SDS011;40776;52.880;6.016;2022-09-29T04:13:05;7.75;;;6.18;;
54883;SDS011;40776;52.880;6.016;2022-09-29T04:15:31;8.23;;;6.10;;
54883;SDS011;40776;52.880;6.016;2022-09-29T04:17:57;10.23;;;6.53;;
54883;SDS011;40776;52.880;6.016;2022-09-29T04:20:24;7.82;;;5.90;;
54883;SDS011;40776;52.880;6.016;2022-09-29T04:25:28;9.63;;;6.95;;
54883;SDS011;40776;52.880;6.016;2022-09-29T04:27:54;8.57;;;6.85;;
54883;SDS011;40776;52.880;6.016;2022-09-29T04:30:20;9.48;;;5.43;;
54883;SDS011;40776;52.880;6.016;2022-09-29T04:32:46;9.02;;;5.75;;
54883;SDS011;40776;52.880;6.016;2022-09-29T04:35:12;10.45;;;6.75;;
54883;SDS011;40776;52.880;6.016;2022-09-29T04:37:38;8.07;;;6.00;;
54883;SDS011;40776;52.880;6.016;2022-09-29T04:40:04;8.38;;;6.25;;
54883;SDS011;40776;52.880;6.016;2022-09-29T04:42:31;8.40;;;6.25;;
54883;SDS011;40776;52.880;6.016;2022-09-29T04:44:57;16.92;;;6.88;;
54883;SDS011;40776;52.880;6.016;2022-09-29T04:47:23;11.10;;;6.70;;
54883;SDS011;40776;52.880;6.016;2022-09-29T04:49:49;13.30;;;7.13;;
54883;SDS011;40776;52.880;6.016;2022-09-29T04:52:15;8.20;;;6.43;;
54883;SDS011;40776;52.880;6.016;2022-09-29T04:54:41;21.38;;;8.43;;
54883;SDS011;40776;52.880;6.016;2022-09-29T04:57:08;15.52;;;10.23;;
54883;SDS011;40776;52.880;6.016;2022-09-29T04:59:34;16.60;;;11.80;;
54883;SDS011;40776;52.880;6.016;2022-09-29T05:02:00;18.17;;;12.20;;
54883;SDS011;40776;52.880;6.016;2022-09-29T05:04:26;30.52;;;12.40;;
54883;SDS011;40776;52.880;6.016;2022-09-29T05:06:52;18.90;;;12.50;;
54883;SDS011;40776;52.880;6.016;2022-09-29T05:09:18;87.32;;;17.02;;
54883;SDS011;40776;52.880;6.016;2022-09-29T05:11:44;50.78;;;14.40;;
54883;SDS011;40776;52.880;6.016;2022-09-29T05:14:10;26.85;;;12.45;;
54883;SDS011;40776;52.880;6.016;2022-09-29T05:16:36;53.88;;;13.23;;
54883;SDS011;40776;52.880;6.016;2022-09-29T05:19:02;14.55;;;11.32;;
54883;SDS011;40776;52.880;6.016;2022-09-29T05:21:29;34.67;;;13.73;;
54883;SDS011;40776;52.880;6.016;2022-09-29T05:23:55;25.40;;;11.63;;
54883;SDS011;40776;52.880;6.016;2022-09-29T05:26:21;34.67;;;14.23;;
54883;SDS011;40776;52.880;6.016;2022-09-29T05:28:47;65.68;;;14.30;;
54883;SDS011;40776;52.880;6.016;2022-09-29T05:31:13;100.82;;;16.13;;
54883;SDS011;40776;52.880;6.016;2022-09-29T05:33:40;80.82;;;14.90;;
54883;SDS011;40776;52.880;6.016;2022-09-29T05:36:07;50.97;;;13.13;;
54883;SDS011;40776;52.880;6.016;2022-09-29T05:38:36;12.63;;;10.57;;
54883;SDS011;40776;52.880;6.016;2022-09-29T05:41:03;63.70;;;14.30;;
54883;SDS011;40776;52.880;6.016;2022-09-29T05:43:29;33.40;;;12.20;;
54883;SDS011;40776;52.880;6.016;2022-09-29T05:46:02;19.20;;;11.27;;
54883;SDS011;40776;52.880;6.016;2022-09-29T05:48:28;60.35;;;14.70;;
54883;SDS011;40776;52.880;6.016;2022-09-29T05:50:55;12.98;;;10.45;;
54883;SDS011;40776;52.880;6.016;2022-09-29T05:53:21;10.80;;;9.23;;
54883;SDS011;40776;52.880;6.016;2022-09-29T05:55:47;12.65;;;10.32;;
54883;SDS011;40776;52.880;6.016;2022-09-29T05:58:13;15.45;;;10.52;;
54883;SDS011;40776;52.880;6.016;2022-09-29T06:00:39;23.20;;;11.30;;
54883;SDS011;40776;52.880;6.016;2022-09-29T06:03:05;14.07;;;10.63;;
54883;SDS011;40776;52.880;6.016;2022-09-29T06:05:31;11.35;;;9.77;;
54883;SDS011;40776;52.880;6.016;2022-09-29T06:07:57;15.63;;;12.40;;
54883;SDS011;40776;52.880;6.016;2022-09-29T06:10:28;11.35;;;9.85;;
54883;SDS011;40776;52.880;6.016;2022-09-29T06:12:54;13.07;;;10.45;;
54883;SDS011;40776;52.880;6.016;2022-09-29T06:15:21;28.83;;;12.45;;
54883;SDS011;40776;52.880;6.016;2022-09-29T06:17:47;16.23;;;12.38;;
54883;SDS011;40776;52.880;6.016;2022-09-29T06:20:19;16.48;;;11.10;;
54883;SDS011;40776;52.880;6.016;2022-09-29T06:22:45;83.03;;;14.98;;
54883;SDS011;40776;52.880;6.016;2022-09-29T06:25:11;69.30;;;14.77;;
54883;SDS011;40776;52.880;6.016;2022-09-29T06:27:37;23.80;;;12.35;;
54883;SDS011;40776;52.880;6.016;2022-09-29T06:30:04;17.95;;;11.55;;
54883;SDS011;40776;52.880;6.016;2022-09-29T06:32:30;21.63;;;12.85;;
54883;SDS011;40776;52.880;6.016;2022-09-29T06:34:58;14.77;;;11.10;;
54883;SDS011;40776;52.880;6.016;2022-09-29T06:37:42;13.00;;;11.32;;
54883;SDS011;40776;52.880;6.016;2022-09-29T06:40:10;15.50;;;12.25;;
54883;SDS011;40776;52.880;6.016;2022-09-29T06:42:36;18.25;;;12.52;;
54883;SDS011;40776;52.880;6.016;2022-09-29T06:45:03;27.38;;;13.02;;
54883;SDS011;40776;52.880;6.016;2022-09-29T06:47:29;16.38;;;12.32;;
54883;SDS011;40776;52.880;6.016;2022-09-29T06:49:55;13.57;;;12.05;;
54883;SDS011;40776;52.880;6.016;2022-09-29T06:52:23;16.95;;;14.27;;
54883;SDS011;40776;52.880;6.016;2022-09-29T06:54:50;17.00;;;12.70;;
54883;SDS011;40776;52.880;6.016;2022-09-29T06:57:16;18.40;;;13.98;;
54883;SDS011;40776;52.880;6.016;2022-09-29T06:59:43;16.40;;;13.43;;
54883;SDS011;40776;52.880;6.016;2022-09-29T07:02:09;18.60;;;14.05;;
54883;SDS011;40776;52.880;6.016;2022-09-29T07:04:35;19.50;;;14.40;;
54883;SDS011;40776;52.880;6.016;2022-09-29T07:07:02;19.83;;;15.82;;
54883;SDS011;40776;52.880;6.016;2022-09-29T07:09:28;21.05;;;16.48;;
54883;SDS011;40776;52.880;6.016;2022-09-29T07:11:54;17.90;;;13.57;;
54883;SDS011;40776;52.880;6.016;2022-09-29T07:14:21;16.10;;;12.07;;
54883;SDS011;40776;52.880;6.016;2022-09-29T07:16:47;15.90;;;11.85;;
54883;SDS011;40776;52.880;6.016;2022-09-29T07:19:14;15.95;;;12.07;;
54883;SDS011;40776;52.880;6.016;2022-09-29T07:21:42;15.23;;;11.25;;
54883;SDS011;40776;52.880;6.016;2022-09-29T07:24:08;16.15;;;12.55;;
54883;SDS011;40776;52.880;6.016;2022-09-29T07:26:34;16.77;;;11.88;;
54883;SDS011;40776;52.880;6.016;2022-09-29T07:29:00;15.80;;;12.40;;
54883;SDS011;40776;52.880;6.016;2022-09-29T07:31:26;13.15;;;10.85;;
54883;SDS011;40776;52.880;6.016;2022-09-29T07:33:52;15.05;;;10.68;;
54883;SDS011;40776;52.880;6.016;2022-09-29T07:36:19;14.13;;;10.77;;
54883;SDS011;40776;52.880;6.016;2022-09-29T07:38:46;15.20;;;11.77;;
54883;SDS011;40776;52.880;6.016;2022-09-29T07:41:13;13.27;;;10.55;;
54883;SDS011;40776;52.880;6.016;2022-09-29T07:43:39;11.88;;;9.55;;
54883;SDS011;40776;52.880;6.016;2022-09-29T07:46:05;14.68;;;10.38;;
54883;SDS011;40776;52.880;6.016;2022-09-29T07:48:32;11.82;;;8.90;;
54883;SDS011;40776;52.880;6.016;2022-09-29T07:51:20;13.73;;;9.15;;
54883;SDS011;40776;52.880;6.016;2022-09-29T07:53:45;12.25;;;10.15;;
54883;SDS011;40776;52.880;6.016;2022-09-29T07:56:16;12.95;;;9.43;;
54883;SDS011;40776;52.880;6.016;2022-09-29T07:58:43;11.65;;;9.63;;
54883;SDS011;40776;52.880;6.016;2022-09-29T08:01:09;13.52;;;9.00;;
54883;SDS011;40776;52.880;6.016;2022-09-29T08:03:37;12.00;;;9.15;;
54883;SDS011;40776;52.880;6.016;2022-09-29T08:06:03;11.18;;;9.10;;
54883;SDS011;40776;52.880;6.016;2022-09-29T08:08:30;11.70;;;9.05;;
54883;SDS011;40776;52.880;6.016;2022-09-29T08:11:03;11.32;;;8.57;;
54883;SDS011;40776;52.880;6.016;2022-09-29T08:13:29;12.60;;;10.07;;
54883;SDS011;40776;52.880;6.016;2022-09-29T08:15:57;12.27;;;8.63;;
54883;SDS011;40776;52.880;6.016;2022-09-29T08:18:23;10.23;;;8.40;;
54883;SDS011;40776;52.880;6.016;2022-09-29T08:20:49;12.32;;;7.63;;
54883;SDS011;40776;52.880;6.016;2022-09-29T08:23:17;11.98;;;8.38;;
54883;SDS011;40776;52.880;6.016;2022-09-29T08:25:44;9.65;;;8.02;;
54883;SDS011;40776;52.880;6.016;2022-09-29T08:28:10;10.05;;;6.53;;
54883;SDS011;40776;52.880;6.016;2022-09-29T08:30:36;10.30;;;7.00;;
54883;SDS011;40776;52.880;6.016;2022-09-29T08:33:02;10.02;;;7.68;;
54883;SDS011;40776;52.880;6.016;2022-09-29T08:35:31;10.57;;;7.82;;
54883;SDS011;40776;52.880;6.016;2022-09-29T08:37:57;10.52;;;6.88;;
54883;SDS011;40776;52.880;6.016;2022-09-29T08:40:26;14.48;;;7.60;;
54883;SDS011;40776;52.880;6.016;2022-09-29T08:45:29;11.10;;;6.03;;
54883;SDS011;40776;52.880;6.016;2022-09-29T08:48:08;11.57;;;6.57;;
54883;SDS011;40776;52.880;6.016;2022-09-29T08:50:41;10.25;;;6.10;;
54883;SDS011;40776;52.880;6.016;2022-09-29T08:53:10;9.50;;;6.15;;
54883;SDS011;40776;52.880;6.016;2022-09-29T08:58:12;11.18;;;6.80;;
54883;SDS011;40776;52.880;6.016;2022-09-29T09:14:01;9.48;;;5.75;;
54883;SDS011;40776;52.880;6.016;2022-09-29T09:19:31;9.43;;;4.90;;
54883;SDS011;40776;52.880;6.016;2022-09-29T09:32:40;13.13;;;4.88;;
54883;SDS011;40776;52.880;6.016;2022-09-29T09:36:09;7.03;;;4.15;;
54883;SDS011;40776;52.880;6.016;2022-09-29T09:41:02;7.38;;;3.55;;
54883;SDS011;40776;52.880;6.016;2022-09-29T09:43:32;7.35;;;4.55;;
54883;SDS011;40776;52.880;6.016;2022-09-29T09:48:40;11.20;;;4.93;;
54883;SDS011;40776;52.880;6.016;2022-09-29T09:51:21;6.95;;;4.13;;
54883;SDS011;40776;52.880;6.016;2022-09-29T09:53:50;12.63;;;5.03;;
54883;SDS011;40776;52.880;6.016;2022-09-29T10:01:26;8.05;;;5.15;;
54883;SDS011;40776;52.880;6.016;2022-09-29T10:03:52;4.68;;;3.72;;
54883;SDS011;40776;52.880;6.016;2022-09-29T10:06:18;5.05;;;3.60;;
54883;SDS011;40776;52.880;6.016;2022-09-29T10:08:44;9.05;;;3.92;;
54883;SDS011;40776;52.880;6.016;2022-09-29T10:11:20;9.27;;;4.55;;
54883;SDS011;40776;52.880;6.016;2022-09-29T10:13:47;6.82;;;4.13;;
54883;SDS011;40776;52.880;6.016;2022-09-29T10:16:21;4.70;;;3.70;;
54883;SDS011;40776;52.880;6.016;2022-09-29T10:18:49;6.55;;;3.70;;
54883;SDS011;40776;52.880;6.016;2022-09-29T10:23:50;5.72;;;4.03;;
54883;SDS011;40776;52.880;6.016;2022-09-29T10:26:17;5.38;;;3.42;;
54883;SDS011;40776;52.880;6.016;2022-09-29T10:28:51;4.88;;;2.83;;
54883;SDS011;40776;52.880;6.016;2022-09-29T10:31:28;7.85;;;3.47;;
54883;SDS011;40776;52.880;6.016;2022-09-29T10:33:59;6.15;;;2.50;;
54883;SDS011;40776;52.880;6.016;2022-09-29T10:36:27;3.00;;;2.20;;
54883;SDS011;40776;52.880;6.016;2022-09-29T10:38:54;8.60;;;3.78;;
54883;SDS011;40776;52.880;6.016;2022-09-29T10:41:21;5.07;;;3.25;;
54883;SDS011;40776;52.880;6.016;2022-09-29T10:43:49;4.65;;;3.22;;
54883;SDS011;40776;52.880;6.016;2022-09-29T10:46:36;5.80;;;2.63;;
54883;SDS011;40776;52.880;6.016;2022-09-29T10:51:41;4.18;;;2.20;;
54883;SDS011;40776;52.880;6.016;2022-09-29T10:54:13;7.25;;;2.38;;
54883;SDS011;40776;52.880;6.016;2022-09-29T10:56:44;3.25;;;1.92;;
54883;SDS011;40776;52.880;6.016;2022-09-29T11:01:42;11.95;;;3.13;;
54883;SDS011;40776;52.880;6.016;2022-09-29T11:04:14;5.32;;;2.20;;
54883;SDS011;40776;52.880;6.016;2022-09-29T11:06:42;2.40;;;1.50;;
54883;SDS011;40776;52.880;6.016;2022-09-29T11:11:53;4.72;;;1.90;;
54883;SDS011;40776;52.880;6.016;2022-09-29T11:16:52;3.92;;;1.90;;
54883;SDS011;40776;52.880;6.016;2022-09-29T11:19:19;8.07;;;2.10;;
54883;SDS011;40776;52.880;6.016;2022-09-29T11:35:17;2.00;;;0.90;;
54883;SDS011;40776;52.880;6.016;2022-09-29T11:45:35;1.50;;;0.88;;
54883;SDS011;40776;52.880;6.016;2022-09-29T12:03:43;1.75;;;0.90;;
54883;SDS011;40776;52.880;6.016;2022-09-29T12:11:39;2.35;;;0.70;;
54883;SDS011;40776;52.880;6.016;2022-09-29T12:14:14;1.73;;;0.60;;
54883;SDS011;40776;52.880;6.016;2022-09-29T12:16:43;3.08;;;0.80;;
54883;SDS011;40776;52.880;6.016;2022-09-29T12:19:18;3.22;;;1.30;;
54883;SDS011;40776;52.880;6.016;2022-09-29T12:21:48;1.80;;;1.13;;
54883;SDS011;40776;52.880;6.016;2022-09-29T12:24:35;2.50;;;1.17;;
54883;SDS011;40776;52.880;6.016;2022-09-29T12:27:08;2.58;;;1.13;;
54883;SDS011;40776;52.880;6.016;2022-09-29T12:29:40;1.42;;;0.82;;
54883;SDS011;40776;52.880;6.016;2022-09-29T12:32:13;1.80;;;1.08;;
54883;SDS011;40776;52.880;6.016;2022-09-29T12:34:54;1.38;;;0.70;;
54883;SDS011;40776;52.880;6.016;2022-09-29T12:37:26;4.28;;;0.73;;
54883;SDS011;40776;52.880;6.016;2022-09-29T12:40:02;3.58;;;1.30;;
54883;SDS011;40776;52.880;6.016;2022-09-29T12:45:11;1.90;;;1.02;;
54883;SDS011;40776;52.880;6.016;2022-09-29T12:50:41;2.97;;;1.52;;
54883;SDS011;40776;52.880;6.016;2022-09-29T12:53:19;2.53;;;0.98;;
54883;SDS011;40776;52.880;6.016;2022-09-29T12:55:48;2.55;;;1.35;;
54883;SDS011;40776;52.880;6.016;2022-09-29T12:58:30;1.90;;;0.80;;
54883;SDS011;40776;52.880;6.016;2022-09-29T13:01:43;1.23;;;0.90;;
54883;SDS011;40776;52.880;6.016;2022-09-29T13:04:43;3.08;;;1.02;;
54883;SDS011;40776;52.880;6.016;2022-09-29T13:07:07;1.85;;;1.08;;
54883;SDS011;40776;52.880;6.016;2022-09-29T13:15:48;3.53;;;1.30;;
54883;SDS011;40776;52.880;6.016;2022-09-29T13:18:25;1.73;;;1.10;;
54883;SDS011;40776;52.880;6.016;2022-09-29T13:23:40;2.65;;;1.33;;
54883;SDS011;40776;52.880;6.016;2022-09-29T13:28:47;2.65;;;1.52;;
54883;SDS011;40776;52.880;6.016;2022-09-29T13:31:15;3.03;;;1.13;;
54883;SDS011;40776;52.880;6.016;2022-09-29T13:33:50;1.63;;;1.08;;
54883;SDS011;40776;52.880;6.016;2022-09-29T13:36:21;2.33;;;1.33;;
54883;SDS011;40776;52.880;6.016;2022-09-29T13:38:51;2.72;;;1.50;;
54883;SDS011;40776;52.880;6.016;2022-09-29T13:48:53;2.97;;;1.55;;
54883;SDS011;40776;52.880;6.016;2022-09-29T13:51:27;2.40;;;1.42;;
54883;SDS011;40776;52.880;6.016;2022-09-29T13:54:37;2.05;;;1.27;;
54883;SDS011;40776;52.880;6.016;2022-09-29T13:56:45;2.78;;;1.40;;
54883;SDS011;40776;52.880;6.016;2022-09-29T13:59:12;2.10;;;1.10;;
54883;SDS011;40776;52.880;6.016;2022-09-29T14:01:39;3.53;;;1.05;;
54883;SDS011;40776;52.880;6.016;2022-09-29T14:06:53;1.95;;;1.40;;
54883;SDS011;40776;52.880;6.016;2022-09-29T14:09:20;2.53;;;1.30;;
54883;SDS011;40776;52.880;6.016;2022-09-29T14:11:47;3.38;;;0.90;;
54883;SDS011;40776;52.880;6.016;2022-09-29T14:21:58;1.95;;;0.70;;
54883;SDS011;40776;52.880;6.016;2022-09-29T14:29:59;1.77;;;0.95;;
54883;SDS011;40776;52.880;6.016;2022-09-29T14:32:50;3.17;;;0.70;;
54883;SDS011;40776;52.880;6.016;2022-09-29T14:35:17;2.83;;;0.70;;
54883;SDS011;40776;52.880;6.016;2022-09-29T14:37:44;2.10;;;0.98;;
54883;SDS011;40776;52.880;6.016;2022-09-29T14:40:15;3.92;;;0.80;;
54883;SDS011;40776;52.880;6.016;2022-09-29T14:45:29;1.80;;;0.80;;
54883;SDS011;40776;52.880;6.016;2022-09-29T14:48:18;1.45;;;0.70;;
54883;SDS011;40776;52.880;6.016;2022-09-29T15:02:35;1.45;;;0.70;;
54883;SDS011;40776;52.880;6.016;2022-09-29T15:05:13;0.85;;;0.63;;
54883;SDS011;40776;52.880;6.016;2022-09-29T15:07:40;0.98;;;0.60;;
54883;SDS011;40776;52.880;6.016;2022-09-29T15:10:18;1.02;;;0.60;;
54883;SDS011;40776;52.880;6.016;2022-09-29T15:12:44;1.98;;;0.80;;
54883;SDS011;40776;52.880;6.016;2022-09-29T15:15:47;2.23;;;0.83;;
54883;SDS011;40776;52.880;6.016;2022-09-29T15:18:10;3.28;;;1.08;;
54883;SDS011;40776;52.880;6.016;2022-09-29T15:25:54;2.53;;;1.10;;
54883;SDS011;40776;52.880;6.016;2022-09-29T15:30:50;3.55;;;1.42;;
54883;SDS011;40776;52.880;6.016;2022-09-29T15:33:26;4.30;;;2.10;;
54883;SDS011;40776;52.880;6.016;2022-09-29T15:35:57;3.45;;;1.70;;
54883;SDS011;40776;52.880;6.016;2022-09-29T15:40:53;6.75;;;2.78;;
54883;SDS011;40776;52.880;6.016;2022-09-29T15:43:24;4.13;;;2.15;;
54883;SDS011;40776;52.880;6.016;2022-09-29T15:45:53;3.72;;;2.55;;
54883;SDS011;40776;52.880;6.016;2022-09-29T15:48:22;4.95;;;1.90;;
54883;SDS011;40776;52.880;6.016;2022-09-29T15:50:48;3.70;;;1.50;;
54883;SDS011;40776;52.880;6.016;2022-09-29T15:53:15;3.25;;;1.75;;
54883;SDS011;40776;52.880;6.016;2022-09-29T15:55:41;2.90;;;1.50;;
54883;SDS011;40776;52.880;6.016;2022-09-29T16:03:25;5.18;;;2.13;;
54883;SDS011;40776;52.880;6.016;2022-09-29T16:06:04;2.92;;;1.55;;
54883;SDS011;40776;52.880;6.016;2022-09-29T16:08:32;2.83;;;1.30;;
54883;SDS011;40776;52.880;6.016;2022-09-29T16:11:03;1.20;;;0.80;;
54883;SDS011;40776;52.880;6.016;2022-09-29T16:13:32;2.63;;;1.30;;
54883;SDS011;40776;52.880;6.016;2022-09-29T16:16:03;2.13;;;1.40;;
54883;SDS011;40776;52.880;6.016;2022-09-29T16:18:31;2.55;;;1.25;;
54883;SDS011;40776;52.880;6.016;2022-09-29T16:23:47;2.35;;;1.02;;
54883;SDS011;40776;52.880;6.016;2022-09-29T16:26:18;2.40;;;1.10;;
54883;SDS011;40776;52.880;6.016;2022-09-29T16:31:39;1.40;;;0.80;;
54883;SDS011;40776;52.880;6.016;2022-09-29T16:34:47;0.93;;;0.60;;
54883;SDS011;40776;52.880;6.016;2022-09-29T16:37:02;1.05;;;0.57;;
54883;SDS011;40776;52.880;6.016;2022-09-29T16:39:38;1.50;;;0.57;;
54883;SDS011;40776;52.880;6.016;2022-09-29T16:42:05;2.53;;;0.65;;
54883;SDS011;40776;52.880;6.016;2022-09-29T16:44:33;1.85;;;0.50;;
54883;SDS011;40776;52.880;6.016;2022-09-29T16:47:19;0.95;;;0.57;;
54883;SDS011;40776;52.880;6.016;2022-09-29T16:49:53;1.35;;;0.55;;
54883;SDS011;40776;52.880;6.016;2022-09-29T16:52:27;1.00;;;0.70;;
54883;SDS011;40776;52.880;6.016;2022-09-29T16:55:05;0.90;;;0.60;;
54883;SDS011;40776;52.880;6.016;2022-09-29T16:57:32;1.77;;;0.65;;
54883;SDS011;40776;52.880;6.016;2022-09-29T16:59:59;1.90;;;0.90;;
54883;SDS011;40776;52.880;6.016;2022-09-29T17:04:54;3.25;;;0.60;;
54883;SDS011;40776;52.880;6.016;2022-09-29T17:07:22;2.35;;;0.50;;
54883;SDS011;40776;52.880;6.016;2022-09-29T17:10:06;1.33;;;0.75;;
54883;SDS011;40776;52.880;6.016;2022-09-29T17:12:37;1.58;;;0.85;;
54883;SDS011;40776;52.880;6.016;2022-09-29T17:15:03;2.10;;;0.70;;
54883;SDS011;40776;52.880;6.016;2022-09-29T17:17:29;0.85;;;0.47;;
54883;SDS011;40776;52.880;6.016;2022-09-29T17:19:55;0.85;;;0.50;;
54883;SDS011;40776;52.880;6.016;2022-09-29T17:22:31;1.40;;;0.55;;
54883;SDS011;40776;52.880;6.016;2022-09-29T17:24:58;3.38;;;1.50;;
54883;SDS011;40776;52.880;6.016;2022-09-29T17:27:25;3.40;;;2.10;;
54883;SDS011;40776;52.880;6.016;2022-09-29T17:30:10;2.72;;;1.58;;
54883;SDS011;40776;52.880;6.016;2022-09-29T17:32:38;3.22;;;2.00;;
54883;SDS011;40776;52.880;6.016;2022-09-29T17:35:06;4.35;;;1.83;;
54883;SDS011;40776;52.880;6.016;2022-09-29T17:37:32;15.75;;;8.45;;
54883;SDS011;40776;52.880;6.016;2022-09-29T17:39:58;16.92;;;10.45;;
54883;SDS011;40776;52.880;6.016;2022-09-29T17:42:24;7.95;;;5.75;;
54883;SDS011;40776;52.880;6.016;2022-09-29T17:44:50;5.50;;;3.60;;
54883;SDS011;40776;52.880;6.016;2022-09-29T17:47:17;11.48;;;2.03;;
54883;SDS011;40776;52.880;6.016;2022-09-29T17:49:43;6.45;;;1.55;;
54883;SDS011;40776;52.880;6.016;2022-09-29T17:52:15;2.55;;;1.20;;
54883;SDS011;40776;52.880;6.016;2022-09-29T17:54:43;3.90;;;2.00;;
54883;SDS011;40776;52.880;6.016;2022-09-29T17:57:27;8.55;;;2.33;;
54883;SDS011;40776;52.880;6.016;2022-09-29T17:59:56;7.88;;;2.38;;
54883;SDS011;40776;52.880;6.016;2022-09-29T18:02:24;2.30;;;1.15;;
54883;SDS011;40776;52.880;6.016;2022-09-29T18:04:50;3.83;;;1.30;;
54883;SDS011;40776;52.880;6.016;2022-09-29T18:07:18;4.32;;;1.58;;
54883;SDS011;40776;52.880;6.016;2022-09-29T18:09:44;2.45;;;0.70;;
54883;SDS011;40776;52.880;6.016;2022-09-29T18:12:11;1.30;;;0.70;;
54883;SDS011;40776;52.880;6.016;2022-09-29T18:14:37;1.63;;;0.60;;